Latest Weather Observations for Bega

IDN60801

Issued at 10:32 am EST Monday 16 September 2019 (issued every 10 minutes, with the page automatically refreshed every 10 minutes)

About weather observations | Map of weather stations | Latest weather observations for NSW | Other Formats
Station Details ID: 069139 Name: BEGA AWS Lat: -36.67 Lon: 149.82 Height: 41.0 m
Data from the previous 72 hours. | See also: Recent months at Bega
Date/Time
EST
Temp
°C
App
Temp
°C
Dew
Point
°C
Rel
Hum
%
Delta-T
°C
Wind Press
QNH
hPa
Press
MSL
hPa
Rain since
9am
mm
Dir  Spd
km/h
Gust
km/h
Spd
kts
Gust
kts
16/10:30am 15.5 8.9 6.0 53 4.6 SSW 30 41 16 22 1015.5 1015.6 0.0
16/10:00am 16.4 9.6 6.8 53 4.7 SW 32 50 17 27 1015.7 1015.7 0.0
16/09:49am 15.6 8.7 7.1 57 4.2 SW 33 52 18 28 1015.4 1015.5 0.0
16/09:30am 15.1 8.2 7.4 60 3.8 SW 33 48 18 26 1015.8 1015.8 0.0
16/09:00am 16.8 11.3 9.0 60 4.0 SW 28 41 15 22 1014.8 1014.8 0.0
16/08:56am 17.0 12.2 8.7 58 4.3 SSW 24 41 13 22 1014.7 1014.7 0.0
16/08:30am 19.5 18.6 11.5 60 4.4 SE 7 11 4 6 1014.3 1014.3 0.0
16/08:00am 17.6 16.4 9.5 59 4.3 E 6 11 3 6 1013.7 1013.7 0.0
16/07:30am 15.8 15.4 9.9 68 3.1 NNE 2 7 1 4 1013.5 1013.5 0.0
16/07:00am 13.7 13.3 9.7 77 2.1 WSW 2 7 1 4 1013.8 1013.8 0.0
16/06:30am 11.6 10.1 8.3 80 1.6 WNW 6 11 3 6 1013.1 1013.1 0.0
16/06:00am 11.8 10.2 8.6 81 1.6 NNE 7 9 4 5 1012.5 1012.5 0.0
16/05:30am 11.8 10.7 8.5 80 1.6 S 4 9 2 5 1011.9 1011.9 0.0
16/05:00am 11.2 9.7 8.6 84 1.3 SSW 6 9 3 5 1011.6 1011.6 0.0
16/04:30am 11.8 10.5 9.2 84 1.3 SSW 6 11 3 6 1010.9 1010.9 0.0
16/04:00am 11.7 10.1 8.2 79 1.7 SW 6 11 3 6 1011.0 1011.0 0.0
16/03:30am 13.6 12.7 9.3 75 2.2 N 4 7 2 4 1010.9 1010.9 0.0
16/03:00am 15.3 15.2 10.7 74 2.4 NW 2 7 1 4 1011.4 1011.4 0.0
16/02:30am 14.8 14.1 10.2 74 2.4 SSW 4 7 2 4 1012.1 1012.1 0.0
16/02:00am 15.1 15.0 9.5 69 2.9 CALM 0 6 0 3 1012.8 1012.8 0.0
16/01:30am 15.7 14.9 8.2 61 3.8 ENE 2 7 1 4 1013.4 1013.4 0.0
16/01:00am 15.3 13.9 7.1 58 4.0 SE 4 9 2 5 1013.8 1013.8 0.0
16/12:30am 13.8 12.9 6.2 60 3.6 CALM 0 7 0 4 1014.1 1014.1 0.0
16/12:00am 14.8 12.8 6.4 57 4.1 SSW 6 7 3 4 1014.0 1014.0 0.0
 
Date/Time
EST
Temp
°C
App
Temp
°C
Dew
Point
°C
Rel
Hum
%
Delta-T
°C
Wind Press
QNH
hPa
Press
MSL
hPa
Rain since
9am
mm
Dir  Spd
km/h
Gust
km/h
Spd
kts
Gust
kts
15/11:30pm 15.5 13.9 6.2 54 4.5 SSW 4 7 2 4 1014.2 1014.2 0.0
15/11:00pm 16.7 15.8 5.9 49 5.2 CALM 0 0 0 0 1014.4 1014.4 0.0
15/10:30pm 17.1 14.9 6.0 48 5.4 SSW 7 9 4 5 1014.7 1014.7 0.0
15/10:00pm 16.3 14.2 5.9 50 5.0 WSW 6 9 3 5 1014.8 1014.8 0.0
15/09:30pm 19.1 16.1 4.1 37 7.2 NW 9 13 5 7 1014.6 1014.6 0.0
15/09:00pm 18.1 16.0 5.7 44 6.1 W 6 7 3 4 1014.7 1014.7 0.0
15/08:30pm 19.1 17.0 5.9 42 6.5 WSW 6 7 3 4 1014.8 1014.8 0.0
15/08:00pm 20.2 18.0 5.4 38 7.3 W 6 7 3 4 1014.7 1014.7 0.0
15/07:30pm 22.6 19.7 4.6 31 8.9 NNW 9 11 5 6 1014.5 1014.5 0.0
15/07:00pm 22.4 19.5 4.9 32 8.7 NW 9 11 5 6 1014.4 1014.4 0.0
15/06:30pm 22.4 19.5 4.9 32 8.7 NW 9 13 5 7 1014.5 1014.5 0.0
15/06:00pm 22.9 19.3 4.9 31 8.9 NNW 13 17 7 9 1014.3 1014.3 0.0
15/05:30pm 23.5 20.6 4.9 30 9.3 WNW 9 15 5 8 1014.3 1014.3 0.0
15/05:00pm 24.7 21.8 4.5 27 10.1 NW 9 17 5 9 1014.2 1014.2 0.0
15/04:30pm 25.2 21.6 4.9 27 10.3 WNW 13 22 7 12 1014.2 1014.2 0.0
15/04:00pm 25.4 21.4 5.1 27 10.3 W 15 22 8 12 1014.4 1014.4 0.0
15/03:30pm 26.0 21.1 5.0 26 10.7 WNW 20 30 11 16 1014.2 1014.2 0.0
15/03:00pm 26.3 22.0 5.3 26 10.8 WNW 17 32 9 17 1014.4 1014.4 0.0
15/02:30pm 26.4 23.5 4.8 25 11.0 NNE 9 17 5 9 1014.6 1014.6 0.0
15/02:00pm 25.3 21.8 5.5 28 10.1 NE 13 17 7 9 1014.9 1014.9 0.0
15/01:30pm 24.8 22.0 5.1 28 10.0 NNE 9 15 5 8 1015.3 1015.4 0.0
15/01:00pm 24.2 22.6 4.6 28 9.8 ESE 2 9 1 5 1016.1 1016.1 0.0
15/12:30pm 23.0 21.5 5.0 31 9.0 S 2 7 1 4 1016.5 1016.5 0.0
15/12:00pm 22.0 20.3 5.8 35 8.1 E 4 7 2 4 1017.1 1017.1 0.0
15/11:30am 20.1 19.0 6.8 42 6.7 N 2 7 1 4 1017.6 1017.6 0.0
15/11:00am 18.0 16.8 6.5 47 5.7 S 2 7 1 4 1018.1 1018.1 0.0
15/10:30am 16.4 14.6 7.1 54 4.6 S 6 9 3 5 1018.5 1018.5 0.0
15/10:00am 15.9 14.8 6.9 55 4.4 NE 2 6 1 3 1018.9 1018.9 0.0
15/09:30am 14.2 12.2 6.1 58 3.9 SSE 6 9 3 5 1019.7 1019.7 0.0
15/09:00am 11.2 10.4 6.3 72 2.3 CALM 0 0 0 0 1020.1 1020.1 0.0
15/08:30am 9.3 8.1 6.4 82 1.3 NE 2 6 1 3 1020.2 1020.2 0.0
15/08:00am 7.6 6.6 5.6 87 0.9 CALM 0 6 0 3 1020.1 1020.1 0.0
15/07:30am 6.4 5.0 5.5 94 0.4 NE 2 6 1 3 1020.1 1020.1 0.0
15/07:00am 4.4 2.4 4.3 99 0.0 NNW 4 7 2 4 1019.7 1019.7 0.0
15/06:30am 2.4 -0.4 2.3 99 0.0 SE 6 9 3 5 1019.5 1019.5 0.0
15/06:00am 1.7 -0.1 1.4 98 0.1 CALM 0 2 0 1 1019.3 1019.3 0.0
15/05:30am 2.4 0.8 2.3 99 0.0 CALM 0 0 0 0 1019.7 1019.7 0.0
15/05:00am 1.5 -1.4 1.4 99 0.0 SW 6 7 3 4 1019.7 1019.7 0.0
15/04:30am 1.7 -0.1 1.4 98 0.1 CALM 0 0 0 0 1019.7 1019.7 0.0
15/04:00am 2.9 1.4 2.8 99 0.0 CALM 0 0 0 0 1019.6 1019.6 0.0
15/03:30am 2.0 0.3 1.9 99 0.0 CALM 0 0 0 0 1019.6 1019.6 0.0
15/03:00am 2.7 1.1 2.6 99 0.0 CALM 0 0 0 0 1019.7 1019.7 0.0
15/02:30am 2.0 -0.5 1.7 98 0.1 W 4 9 2 5 1019.7 1019.7 0.0
15/02:00am 2.1 -0.9 1.8 98 0.1 S 7 7 4 4 1020.0 1020.0 0.0
15/01:30am 2.1 -0.8 1.5 96 0.2 SSW 6 7 3 4 1020.4 1020.4 0.0
15/01:00am 3.0 1.4 2.4 96 0.2 CALM 0 0 0 0 1020.7 1020.7 0.0
15/12:30am 3.8 2.0 3.4 97 0.2 SSW 2 7 1 4 1021.1 1021.1 0.0
15/12:00am 3.6 2.1 3.0 96 0.2 CALM 0 0 0 0 1021.3 1021.3 0.0
 
Date/Time
EST
Temp
°C
App
Temp
°C
Dew
Point
°C
Rel
Hum
%
Delta-T
°C
Wind Press
QNH
hPa
Press
MSL
hPa
Rain since
9am
mm
Dir  Spd
km/h
Gust
km/h
Spd
kts
Gust
kts
14/11:30pm 4.6 3.3 4.0 96 0.3 CALM 0 0 0 0 1021.4 1021.4 0.0
14/11:00pm 4.7 3.3 3.8 94 0.4 CALM 0 0 0 0 1021.6 1021.6 0.0
14/10:30pm 5.0 3.7 4.0 93 0.4 CALM 0 0 0 0 1021.9 1021.9 0.0
14/10:00pm 5.6 4.4 4.4 92 0.5 CALM 0 0 0 0 1022.3 1022.3 0.0
14/09:30pm 6.1 4.2 4.7 91 0.6 SSW 4 7 2 4 1022.6 1022.6 0.0
14/09:00pm 6.8 4.9 5.0 88 0.8 SSW 4 7 2 4 1022.7 1022.7 0.0
14/08:30pm 7.7 6.7 5.5 86 1.0 CALM 0 0 0 0 1022.6 1022.6 0.0
14/08:00pm 9.3 8.4 6.2 81 1.4 CALM 0 0 0 0 1022.6 1022.6 0.0
14/07:30pm 11.2 10.4 6.7 74 2.1 CALM 0 0 0 0 1022.7 1022.7 0.0
14/07:00pm 12.4 11.8 7.5 72 2.4 CALM 0 0 0 0 1022.6 1022.6 0.0
14/06:30pm 13.2 11.3 7.6 69 2.7 NE 7 9 4 5 1022.5 1022.5 0.0
14/06:00pm 13.8 11.5 7.6 66 3.0 NE 9 13 5 7 1022.4 1022.4 0.0
14/05:30pm 14.6 11.5 7.2 61 3.6 ENE 13 17 7 9 1022.0 1022.0 0.0
14/05:00pm 15.7 11.4 7.0 56 4.3 ENE 19 24 10 13 1021.8 1021.8 0.0
14/04:30pm 16.8 12.3 6.3 50 5.1 ENE 19 24 10 13 1021.4 1021.4 0.0
14/04:00pm 17.7 12.9 5.6 45 5.9 NE 20 26 11 14 1021.0 1021.0 0.0
14/03:30pm 18.4 13.4 4.6 40 6.6 ENE 20 26 11 14 1020.8 1020.8 0.0
14/03:00pm 19.1 14.2 4.1 37 7.1 E 19 26 10 14 1020.7 1020.7 0.0
14/02:30pm 19.7 15.4 3.4 34 7.7 E 15 20 8 11 1020.7 1020.7 0.0
14/02:00pm 20.7 16.0 3.4 32 8.2 E 17 22 9 12 1020.6 1020.6 0.0
14/01:30pm 21.1 16.9 1.4 27 9.0 ESE 13 22 7 12 1020.9 1020.9 0.0
14/01:00pm 21.2 16.4 -0.1 24 9.5 SW 15 26 8 14 1021.3 1021.3 0.0
14/12:30pm 20.0 15.5 -0.6 25 9.0 S 13 26 7 14 1021.4 1021.4 0.0
14/12:00pm 19.7 16.0 -0.3 26 8.7 S 9 19 5 10 1021.8 1021.8 0.0
14/11:30am 18.5 13.7 0.2 29 8.0 SSW 15 22 8 12 1022.3 1022.3 0.0
14/11:00am 17.8 12.2 0.0 30 7.7 SW 19 28 10 15 1022.5 1022.5 0.0
14/10:30am 17.2 12.1 0.8 33 7.2 WSW 17 26 9 14 1022.9 1022.9 0.0
14/10:00am 16.4 11.3 0.9 35 6.7 W 17 28 9 15 1023.4 1023.4 0.0
14/09:30am 15.7 10.3 2.2 40 6.0 WSW 20 30 11 16 1023.5 1023.5 0.0
14/09:00am 15.0 8.0 2.2 42 5.6 SW 28 39 15 21 1023.6 1023.6 0.0
14/08:30am 14.4 9.0 2.6 45 5.3 SW 20 33 11 18 1023.6 1023.6 0.0
14/08:00am 13.7 7.7 3.2 49 4.7 SW 24 33 13 18 1023.5 1023.5 0.0
14/07:30am 13.0 7.1 3.7 53 4.2 SW 24 35 13 19 1023.3 1023.3 0.0
14/07:00am 10.7 5.7 3.5 61 3.1 SW 19 28 10 15 1022.9 1022.9 0.0
14/06:30am 7.4 2.8 3.5 76 1.7 SSW 17 24 9 13 1022.6 1022.6 0.0
14/06:21am 6.9 3.4 5.4 90 0.7 SSW 13 24 7 13 1022.5 1022.5 0.0
14/06:00am 1.8 -1.2 1.7 99 0.0 S 7 15 4 8 1022.4 1022.4 0.0
14/05:30am 2.2 0.5 2.1 99 0.0 CALM 0 0 0 0 1021.9 1021.9 0.0
14/05:00am 1.3 -1.8 1.2 99 0.0 S 7 11 4 6 1021.4 1021.4 0.0
14/04:30am 1.9 -0.9 1.8 99 0.0 SW 6 9 3 5 1021.0 1021.0 0.0
14/04:00am 3.9 1.8 3.8 99 0.0 NW 4 9 2 5 1020.7 1020.7 0.0
14/03:30am 2.1 -0.7 2.0 99 0.0 ENE 6 7 3 4 1020.6 1020.6 0.0
14/03:00am 3.2 1.3 3.1 99 0.0 WSW 2 9 1 5 1020.8 1020.8 0.0
14/02:30am 3.0 0.1 2.7 98 0.1 SSW 7 11 4 6 1020.7 1020.7 0.0
14/02:00am 3.8 2.4 3.5 98 0.1 CALM 0 0 0 0 1020.6 1020.6 0.0
14/01:30am 3.7 2.3 3.3 97 0.2 CALM 0 0 0 0 1020.7 1020.7 0.0
14/01:00am 4.4 3.0 3.8 96 0.2 CALM 0 0 0 0 1020.6 1020.6 0.0
14/12:30am 4.4 3.0 3.8 96 0.3 CALM 0 0 0 0 1020.2 1020.2 0.0
14/12:00am 6.0 3.9 5.7 98 0.1 SW 6 9 3 5 1020.2 1020.2 0.0
 
Date/Time
EST
Temp
°C
App
Temp
°C
Dew
Point
°C
Rel
Hum
%
Delta-T
°C
Wind Press
QNH
hPa
Press
MSL
hPa
Rain since
9am
mm
Dir  Spd
km/h
Gust
km/h
Spd
kts
Gust
kts
13/11:30pm 5.2 3.2 4.6 96 0.3 SSW 4 6 2 3 1020.1 1020.1 0.0
13/11:00pm 5.5 3.9 4.3 92 0.5 WSW 2 6 1 3 1020.0 1020.0 0.0
13/10:30pm 6.8 5.8 5.7 93 0.5 CALM 0 6 0 3 1020.1 1020.1 0.0
13/10:00pm 7.7 6.7 5.8 88 0.9 CALM 0 0 0 0 1020.6 1020.6 0.0
13/09:30pm 8.4 6.3 6.7 89 0.8 SW 7 9 4 5 1020.6 1020.6 0.0
13/09:00pm 8.5 7.6 6.1 85 1.1 CALM 0 0 0 0 1020.4 1020.4 0.0
13/08:30pm 9.9 9.1 6.4 79 1.6 CALM 0 0 0 0 1020.5 1020.5 0.0
13/08:00pm 11.3 9.5 7.2 76 2.0 WSW 6 7 3 4 1020.4 1020.4 0.0
13/07:30pm 11.7 9.9 7.2 74 2.2 SSW 6 7 3 4 1020.5 1020.5 0.0
13/07:00pm 12.0 10.6 7.1 72 2.4 SSW 4 9 2 5 1020.4 1020.4 0.0
13/06:30pm 12.8 12.2 7.5 70 2.6 CALM 0 0 0 0 1019.9 1019.9 0.0
13/06:00pm 13.3 12.0 7.5 68 2.8 NNE 4 9 2 5 1019.8 1019.8 0.0
13/05:30pm 13.7 11.4 7.5 66 3.0 NE 9 11 5 6 1020.5 1020.5 0.0
13/05:00pm 13.9 11.6 7.4 65 3.2 ESE 9 13 5 7 1021.0 1021.0 0.0
13/04:30pm 14.3 10.8 7.4 63 3.4 ESE 15 20 8 11 1020.6 1020.6 0.0
13/04:00pm 15.2 10.8 7.5 60 3.8 SE 20 26 11 14 1020.4 1020.4 0.0
13/03:30pm 14.9 10.6 7.2 60 3.8 SE 19 24 10 13 1020.1 1020.1 0.0
13/03:00pm 16.2 12.4 7.4 56 4.4 SE 17 22 9 12 1019.7 1019.7 0.0
13/02:30pm 15.8 11.5 7.1 56 4.3 ESE 19 24 10 13 1019.2 1019.2 0.0
13/02:00pm 17.1 12.8 6.9 51 5.1 SE 19 24 10 13 1019.5 1019.5 0.0
13/01:30pm 16.3 11.7 6.7 53 4.7 ESE 20 30 11 16 1019.7 1019.7 0.0
13/01:00pm 16.7 11.4 6.8 52 4.9 SE 24 32 13 17 1020.1 1020.1 0.0
13/12:30pm 17.0 12.5 6.8 51 5.1 SE 20 30 11 16 1020.7 1020.7 0.0
13/12:00pm 17.2 12.8 6.7 50 5.2 ESE 19 26 10 14 1021.1 1021.1 0.0
13/11:30am 17.1 12.7 6.6 50 5.2 SE 19 26 10 14 1021.5 1021.5 0.0
13/11:00am 17.5 13.4 6.4 48 5.5 ESE 17 22 9 12 1022.1 1022.1 0.0

Other formats

Comma delimited format used in spreadsheet applications
http://www.bom.gov.au/fwo/IDN60801/IDN60801.95931.axf

JavaScript Object Notation format (JSON) in row-major order
http://www.bom.gov.au/fwo/IDN60801/IDN60801.95931.json

Data quality

Most of these data are generated automatically and are frequently updated. Quality checks on data are not normally performed. It is possible for incorrect values to appear. Refer to information at About Latest Weather Observations and please check the disclaimer before using these data.